createdAt,value
2023-08-29T00:00:40.811Z,100724.13
2023-08-29T00:10:42.180Z,100737.72
2023-08-29T00:20:44.107Z,100716.97
2023-08-29T00:30:45.665Z,100700.22
2023-08-29T00:40:47.137Z,100707.47
2023-08-29T00:50:49.258Z,100722.56
2023-08-29T01:00:50.802Z,100737.00
2023-08-29T01:11:02.209Z,100737.72
2023-08-29T01:21:15.136Z,100729.28
2023-08-29T01:31:17.818Z,100723.25
2023-08-29T01:41:19.215Z,100731.81
2023-08-29T01:51:20.754Z,100753.09
2023-08-29T02:01:23.832Z,100766.50
2023-08-29T02:11:25.632Z,100766.97
2023-08-29T02:21:27.223Z,100782.28
2023-08-29T02:31:28.661Z,100786.59
2023-08-29T02:41:30.671Z,100790.91
2023-08-29T02:51:32.051Z,100776.44
2023-08-29T03:01:33.525Z,100771.09
2023-08-29T03:11:34.981Z,100759.81
2023-08-29T03:21:36.411Z,100731.31
2023-08-29T03:31:37.883Z,100718.34
2023-08-29T03:41:39.304Z,100715.63
2023-08-29T03:51:40.696Z,100698.28
2023-08-29T04:01:42.140Z,100700.97
2023-08-29T04:11:43.531Z,100693.19
2023-08-29T04:21:44.952Z,100705.34
2023-08-29T04:31:46.472Z,100715.84
2023-08-29T04:41:47.904Z,100711.47
2023-08-29T04:51:49.370Z,100710.59
2023-08-29T05:01:51.128Z,100720.91
2023-08-29T05:11:52.650Z,100721.72
2023-08-29T05:21:54.212Z,100714.78
2023-08-29T05:31:55.715Z,100704.19
2023-08-29T05:41:57.128Z,100706.78
2023-08-29T05:51:58.593Z,100707.50
2023-08-29T06:02:00.077Z,100701.22
2023-08-29T06:12:01.498Z,100709.03
2023-08-29T06:22:02.951Z,100703.47
2023-08-29T06:32:04.589Z,100710.41
2023-08-29T06:42:06.442Z,100714.41
2023-08-29T06:52:07.854Z,100715.81
2023-08-29T07:02:09.334Z,100728.56
2023-08-29T07:12:10.752Z,100731.66
2023-08-29T07:22:23.610Z,100720.84
2023-08-29T07:32:25.794Z,100723.88
2023-08-29T07:42:27.223Z,100724.09
2023-08-29T07:52:28.606Z,100720.97
2023-08-29T08:02:30.197Z,100727.03
2023-08-29T08:12:33.138Z,100725.97
2023-08-29T08:22:38.415Z,100739.19
2023-08-29T08:32:39.902Z,100738.28
2023-08-29T08:42:41.550Z,100731.84
2023-08-29T08:52:43.213Z,100734.88
2023-08-29T09:02:45.998Z,100738.91
2023-08-29T09:12:56.589Z,100742.06
2023-08-29T09:22:58.056Z,100737.88
2023-08-29T09:33:07.968Z,100740.34
2023-08-29T09:43:09.437Z,100745.91
2023-08-29T09:53:14.492Z,100747.38
2023-08-29T10:03:17.569Z,100738.88
2023-08-29T10:13:20.173Z,100729.28
2023-08-29T10:23:22.363Z,100725.59
2023-08-29T10:33:24.105Z,100718.69
2023-08-29T10:43:27.064Z,100715.91
2023-08-29T10:53:30.441Z,100711.03
2023-08-29T11:04:04.051Z,100698.06
2023-08-29T11:14:07.627Z,100700.25
2023-08-29T11:24:16.264Z,100687.41
2023-08-29T11:34:20.105Z,100685.78
2023-08-29T11:44:55.857Z,100680.91
2023-08-29T11:54:54.879Z,100689.66
2023-08-29T12:04:58.142Z,100684.50
2023-08-29T12:15:00.818Z,100684.06
2023-08-29T12:25:02.314Z,100683.41
2023-08-29T12:35:04.051Z,100682.34
2023-08-29T12:45:07.327Z,100668.59
2023-08-29T12:55:11.066Z,100648.78
2023-08-29T13:05:12.679Z,100624.25
2023-08-29T13:15:17.488Z,100627.00
2023-08-29T13:25:20.633Z,100619.22
2023-08-29T13:35:22.103Z,100599.19
2023-08-29T13:45:23.654Z,100588.91
2023-08-29T13:55:25.594Z,100587.03
2023-08-29T14:05:27.114Z,100576.63
2023-08-29T14:15:28.909Z,100572.31
2023-08-29T14:25:30.455Z,100564.09
2023-08-29T14:35:31.880Z,100559.94
2023-08-29T14:45:33.649Z,100566.94
2023-08-29T14:55:35.218Z,100574.97
2023-08-29T15:05:36.776Z,100576.63
2023-08-29T15:15:41.264Z,100571.50
2023-08-29T15:25:43.603Z,100566.41
2023-08-29T15:35:46.584Z,100565.09
2023-08-29T15:45:48.974Z,100566.75
2023-08-29T15:55:50.554Z,100567.28
2023-08-29T16:05:52.117Z,100563.63
2023-08-29T16:15:57.506Z,100554.81
2023-08-29T16:26:00.236Z,100564.34
2023-08-29T16:36:02.831Z,100559.50
2023-08-29T16:46:04.419Z,100559.81
2023-08-29T16:56:08.804Z,100560.22
2023-08-29T17:06:10.791Z,100553.56
2023-08-29T17:16:12.226Z,100551.34
2023-08-29T17:26:13.956Z,100550.97
2023-08-29T17:36:17.171Z,100551.53
2023-08-29T17:46:20.612Z,100548.44
2023-08-29T17:56:23.457Z,100535.59
2023-08-29T18:06:25.648Z,100544.94
2023-08-29T18:16:27.662Z,100547.50
2023-08-29T18:26:30.462Z,100536.72
2023-08-29T18:36:31.874Z,100536.53
2023-08-29T18:46:33.744Z,100553.31
2023-08-29T18:56:35.176Z,100562.22
2023-08-29T19:06:37.703Z,100570.34
2023-08-29T19:16:39.105Z,100566.16
2023-08-29T19:26:40.531Z,100560.97
2023-08-29T19:36:42.372Z,100558.59
2023-08-29T19:46:44.880Z,100554.56
2023-08-29T19:56:46.329Z,100561.97
2023-08-29T20:06:47.877Z,100549.03
2023-08-29T20:16:49.417Z,100555.19
2023-08-29T20:26:51.554Z,100556.28
2023-08-29T20:36:52.959Z,100541.72
2023-08-29T20:46:54.903Z,100542.94
2023-08-29T20:56:56.277Z,100556.09
2023-08-29T21:06:57.677Z,100561.06
2023-08-29T21:16:59.062Z,100561.13
2023-08-29T21:27:00.458Z,100556.38
2023-08-29T21:37:02.202Z,100540.00
2023-08-29T21:47:03.708Z,100535.81
2023-08-29T21:57:05.473Z,100531.63
2023-08-29T22:07:06.959Z,100527.91
2023-08-29T22:17:08.338Z,100515.84
2023-08-29T22:27:09.845Z,100510.59
2023-08-29T22:37:11.958Z,100502.13
2023-08-29T22:47:14.225Z,100495.03
2023-08-29T22:57:16.134Z,100482.97
2023-08-29T23:07:17.970Z,100484.66
2023-08-29T23:17:19.376Z,100474.63
2023-08-29T23:27:21.207Z,100465.03
2023-08-29T23:37:22.607Z,100450.63
2023-08-29T23:47:24.001Z,100438.94
2023-08-29T23:57:25.530Z,100429.13
